sensor_id;sensor_type;location;lat;lon;timestamp;pressure;altitude;pressure_sealevel;temperature;humidity
21779;BME280;11050;52.222;20.916;2022-10-13T00:00:43;101188.63;;;8.42;100.00
21779;BME280;11050;52.222;20.916;2022-10-13T00:03:10;101194.28;;;8.41;100.00
21779;BME280;11050;52.222;20.916;2022-10-13T00:05:41;101185.66;;;8.37;100.00
21779;BME280;11050;52.222;20.916;2022-10-13T00:08:08;101200.66;;;8.35;100.00
21779;BME280;11050;52.222;20.916;2022-10-13T00:10:38;101193.94;;;8.31;100.00
21779;BME280;11050;52.222;20.916;2022-10-13T00:13:05;101191.63;;;8.28;100.00
21779;BME280;11050;52.222;20.916;2022-10-13T00:15:31;101189.09;;;8.26;100.00
21779;BME280;11050;52.222;20.916;2022-10-13T00:17:58;101191.22;;;8.24;100.00
21779;BME280;11050;52.222;20.916;2022-10-13T00:20:23;101184.44;;;8.20;100.00
21779;BME280;11050;52.222;20.916;2022-10-13T00:22:49;101187.00;;;8.22;100.00
21779;BME280;11050;52.222;20.916;2022-10-13T00:25:15;101176.47;;;8.19;100.00
21779;BME280;11050;52.222;20.916;2022-10-13T00:27:41;101187.00;;;8.22;100.00
21779;BME280;11050;52.222;20.916;2022-10-13T00:30:07;101177.94;;;8.21;100.00
21779;BME280;11050;52.222;20.916;2022-10-13T00:32:33;101184.44;;;8.20;100.00
21779;BME280;11050;52.222;20.916;2022-10-13T00:34:58;101183.00;;;8.18;100.00
21779;BME280;11050;52.222;20.916;2022-10-13T00:37:24;101181.09;;;8.18;100.00
21779;BME280;11050;52.222;20.916;2022-10-13T00:39:50;101175.44;;;8.13;100.00
21779;BME280;11050;52.222;20.916;2022-10-13T00:42:16;101176.91;;;8.16;100.00
21779;BME280;11050;52.222;20.916;2022-10-13T00:45:24;101176.28;;;8.14;100.00
21779;BME280;11050;52.222;20.916;2022-10-13T00:48:00;101176.69;;;8.11;100.00
21779;BME280;11050;52.222;20.916;2022-10-13T00:50:36;101178.16;;;8.13;100.00
21779;BME280;11050;52.222;20.916;2022-10-13T00:53:04;101166.81;;;8.10;100.00
21779;BME280;11050;52.222;20.916;2022-10-13T00:55:35;101173.16;;;8.10;100.00
21779;BME280;11050;52.222;20.916;2022-10-13T00:58:06;101159.47;;;8.04;100.00
21779;BME280;11050;52.222;20.916;2022-10-13T01:00:34;101164.34;;;7.95;100.00
21779;BME280;11050;52.222;20.916;2022-10-13T01:03:01;101169.41;;;7.92;100.00
21779;BME280;11050;52.222;20.916;2022-10-13T01:05:28;101173.41;;;7.89;100.00
21779;BME280;11050;52.222;20.916;2022-10-13T01:07:56;101170.06;;;7.87;100.00
21779;BME280;11050;52.222;20.916;2022-10-13T01:10:51;101166.69;;;7.85;100.00
21779;BME280;11050;52.222;20.916;2022-10-13T01:13:45;101167.31;;;7.87;100.00
21779;BME280;11050;52.222;20.916;2022-10-13T01:19:55;101151.75;;;7.81;100.00
21779;BME280;11050;52.222;20.916;2022-10-13T01:34:32;101162.09;;;7.73;100.00
21779;BME280;11050;52.222;20.916;2022-10-13T01:37:02;101151.16;;;7.73;100.00
21779;BME280;11050;52.222;20.916;2022-10-13T01:39:41;101151.78;;;7.68;100.00
21779;BME280;11050;52.222;20.916;2022-10-13T01:42:17;101147.59;;;7.65;100.00
21779;BME280;11050;52.222;20.916;2022-10-13T01:44:52;101143.19;;;7.64;100.00
21779;BME280;11050;52.222;20.916;2022-10-13T01:47:20;101148.44;;;7.66;100.00
21779;BME280;11050;52.222;20.916;2022-10-13T01:49:51;101152.44;;;7.63;100.00
21779;BME280;11050;52.222;20.916;2022-10-13T01:52:20;101149.72;;;7.63;100.00
21779;BME280;11050;52.222;20.916;2022-10-13T01:54:50;101143.63;;;7.61;100.00
21779;BME280;11050;52.222;20.916;2022-10-13T01:57:35;101134.78;;;7.59;100.00
21779;BME280;11050;52.222;20.916;2022-10-13T02:00:10;101143.00;;;7.59;100.00
21779;BME280;11050;52.222;20.916;2022-10-13T02:05:47;101131.19;;;7.52;100.00
21779;BME280;11050;52.222;20.916;2022-10-13T02:08:57;101134.56;;;7.54;100.00
21779;BME280;11050;52.222;20.916;2022-10-13T02:11:24;101131.41;;;7.51;100.00
21779;BME280;11050;52.222;20.916;2022-10-13T02:16:30;101133.53;;;7.49;100.00
21779;BME280;11050;52.222;20.916;2022-10-13T02:19:01;101125.75;;;7.46;100.00
21779;BME280;11050;52.222;20.916;2022-10-13T02:21:30;101124.50;;;7.48;100.00
21779;BME280;11050;52.222;20.916;2022-10-13T02:23:56;101108.94;;;7.42;100.00
21779;BME280;11050;52.222;20.916;2022-10-13T02:26:23;101110.84;;;7.42;100.00
21779;BME280;11050;52.222;20.916;2022-10-13T02:28:49;101120.28;;;7.46;100.00
21779;BME280;11050;52.222;20.916;2022-10-13T02:31:15;101126.38;;;7.48;100.00
21779;BME280;11050;52.222;20.916;2022-10-13T02:33:41;101116.09;;;7.43;100.00
21779;BME280;11050;52.222;20.916;2022-10-13T02:36:06;101115.69;;;7.46;100.00
21779;BME280;11050;52.222;20.916;2022-10-13T02:38:32;101111.25;;;7.45;100.00
21779;BME280;11050;52.222;20.916;2022-10-13T02:41:00;101121.16;;;7.46;100.00
21779;BME280;11050;52.222;20.916;2022-10-13T02:43:28;101123.88;;;7.46;100.00
21779;BME280;11050;52.222;20.916;2022-10-13T02:45:53;101119.22;;;7.47;100.00
21779;BME280;11050;52.222;20.916;2022-10-13T02:48:19;101120.06;;;7.47;100.00
21779;BME280;11050;52.222;20.916;2022-10-13T02:50:45;101123.66;;;7.48;100.00
21779;BME280;11050;52.222;20.916;2022-10-13T02:53:12;101116.94;;;7.44;100.00
21779;BME280;11050;52.222;20.916;2022-10-13T02:55:38;101117.13;;;7.49;100.00
21779;BME280;11050;52.222;20.916;2022-10-13T02:58:03;101119.22;;;7.47;100.00
21779;BME280;11050;52.222;20.916;2022-10-13T03:00:29;101116.72;;;7.45;100.00
21779;BME280;11050;52.222;20.916;2022-10-13T03:02:55;101117.34;;;7.47;100.00
21779;BME280;11050;52.222;20.916;2022-10-13T03:05:21;101119.22;;;7.47;100.00
21779;BME280;11050;52.222;20.916;2022-10-13T03:07:46;101115.44;;;7.48;100.00
21779;BME280;11050;52.222;20.916;2022-10-13T03:10:12;101107.88;;;7.43;100.00
21779;BME280;11050;52.222;20.916;2022-10-13T03:12:38;101116.50;;;7.47;100.00
21779;BME280;11050;52.222;20.916;2022-10-13T03:15:04;101104.28;;;7.43;100.00
21779;BME280;11050;52.222;20.916;2022-10-13T03:17:30;101101.38;;;7.44;100.00
21779;BME280;11050;52.222;20.916;2022-10-13T03:19:55;101108.94;;;7.42;100.00
21779;BME280;11050;52.222;20.916;2022-10-13T03:22:21;101107.25;;;7.41;100.00
21779;BME280;11050;52.222;20.916;2022-10-13T03:24:47;101098.00;;;7.36;100.00
21779;BME280;11050;52.222;20.916;2022-10-13T03:27:13;101099.47;;;7.38;100.00
21779;BME280;11050;52.222;20.916;2022-10-13T03:29:38;101099.72;;;7.37;100.00
21779;BME280;11050;52.222;20.916;2022-10-13T03:32:04;101100.97;;;7.34;100.00
21779;BME280;11050;52.222;20.916;2022-10-13T03:34:30;101100.34;;;7.32;100.00
21779;BME280;11050;52.222;20.916;2022-10-13T03:36:56;101090.66;;;7.30;100.00
21779;BME280;11050;52.222;20.916;2022-10-13T03:39:22;101091.72;;;7.29;100.00
21779;BME280;11050;52.222;20.916;2022-10-13T03:41:48;101097.41;;;7.27;100.00
21779;BME280;11050;52.222;20.916;2022-10-13T03:44:14;101097.63;;;7.26;100.00
21779;BME280;11050;52.222;20.916;2022-10-13T03:46:40;101096.78;;;7.25;100.00
21779;BME280;11050;52.222;20.916;2022-10-13T03:49:05;101100.56;;;7.24;100.00
21779;BME280;11050;52.222;20.916;2022-10-13T03:51:32;101093.00;;;7.20;100.00
21779;BME280;11050;52.222;20.916;2022-10-13T03:53:58;101095.97;;;7.18;100.00
21779;BME280;11050;52.222;20.916;2022-10-13T03:56:26;101098.88;;;7.17;100.00
21779;BME280;11050;52.222;20.916;2022-10-13T03:58:58;101100.97;;;7.15;100.00
21779;BME280;11050;52.222;20.916;2022-10-13T04:01:28;101101.19;;;7.13;100.00
21779;BME280;11050;52.222;20.916;2022-10-13T04:03:55;101104.16;;;7.12;100.00
21779;BME280;11050;52.222;20.916;2022-10-13T04:06:23;101106.47;;;7.08;100.00
21779;BME280;11050;52.222;20.916;2022-10-13T04:08:49;101111.09;;;7.08;100.00
21779;BME280;11050;52.222;20.916;2022-10-13T04:11:19;101109.59;;;7.05;100.00
21779;BME280;11050;52.222;20.916;2022-10-13T04:13:45;101097.00;;;7.04;100.00
21779;BME280;11050;52.222;20.916;2022-10-13T04:16:23;101101.84;;;7.02;100.00
21779;BME280;11050;52.222;20.916;2022-10-13T04:18:57;101107.75;;;6.99;100.00
21779;BME280;11050;52.222;20.916;2022-10-13T04:21:24;101109.84;;;6.97;100.00
21779;BME280;11050;52.222;20.916;2022-10-13T04:23:53;101111.31;;;6.93;100.00
21779;BME280;11050;52.222;20.916;2022-10-13T04:26:23;101118.88;;;6.91;100.00
21779;BME280;11050;52.222;20.916;2022-10-13T04:28:51;101112.16;;;6.87;100.00
21779;BME280;11050;52.222;20.916;2022-10-13T04:31:18;101117.63;;;6.87;100.00
21779;BME280;11050;52.222;20.916;2022-10-13T04:33:47;101115.72;;;6.88;100.00
21779;BME280;11050;52.222;20.916;2022-10-13T04:36:13;101118.84;;;6.85;100.00
21779;BME280;11050;52.222;20.916;2022-10-13T04:38:41;101115.72;;;6.81;100.00
21779;BME280;11050;52.222;20.916;2022-10-13T04:41:12;101120.75;;;6.78;100.00
21779;BME280;11050;52.222;20.916;2022-10-13T04:43:38;101115.72;;;6.75;100.00
21779;BME280;11050;52.222;20.916;2022-10-13T04:46:12;101118.69;;;6.73;100.00
21779;BME280;11050;52.222;20.916;2022-10-13T04:48:39;101110.47;;;6.66;100.00
21779;BME280;11050;52.222;20.916;2022-10-13T04:51:09;101115.06;;;6.66;100.00
21779;BME280;11050;52.222;20.916;2022-10-13T04:53:36;101110.00;;;6.56;100.00
21779;BME280;11050;52.222;20.916;2022-10-13T04:56:08;101120.53;;;6.66;100.00
21779;BME280;11050;52.222;20.916;2022-10-13T04:58:36;101110.44;;;6.60;100.00
21779;BME280;11050;52.222;20.916;2022-10-13T05:01:05;101121.19;;;6.61;100.00
21779;BME280;11050;52.222;20.916;2022-10-13T05:03:33;101113.59;;;6.57;100.00
21779;BME280;11050;52.222;20.916;2022-10-13T05:05:59;101124.72;;;6.62;100.00
21779;BME280;11050;52.222;20.916;2022-10-13T05:08:25;101119.91;;;6.64;100.00
21779;BME280;11050;52.222;20.916;2022-10-13T05:11:00;101121.81;;;6.63;100.00
21779;BME280;11050;52.222;20.916;2022-10-13T05:13:28;101118.66;;;6.66;100.00
21779;BME280;11050;52.222;20.916;2022-10-13T05:15:55;101109.41;;;6.67;100.00
21779;BME280;11050;52.222;20.916;2022-10-13T05:18:21;101112.75;;;6.69;100.00
21779;BME280;11050;52.222;20.916;2022-10-13T05:20:47;101120.78;;;6.71;100.00
21779;BME280;11050;52.222;20.916;2022-10-13T05:23:14;101120.56;;;6.72;100.00
21779;BME280;11050;52.222;20.916;2022-10-13T05:25:40;101111.94;;;6.76;100.00
21779;BME280;11050;52.222;20.916;2022-10-13T05:28:06;101114.91;;;6.81;100.00
21779;BME280;11050;52.222;20.916;2022-10-13T05:30:33;101111.28;;;6.87;100.00
21779;BME280;11050;52.222;20.916;2022-10-13T05:32:59;101114.44;;;6.90;100.00
21779;BME280;11050;52.222;20.916;2022-10-13T05:35:26;101117.00;;;6.92;100.00
21779;BME280;11050;52.222;20.916;2022-10-13T05:37:52;101105.00;;;6.93;100.00
21779;BME280;11050;52.222;20.916;2022-10-13T05:40:19;101118.69;;;6.99;100.00
21779;BME280;11050;52.222;20.916;2022-10-13T05:42:50;101117.22;;;7.03;100.00
21779;BME280;11050;52.222;20.916;2022-10-13T05:45:17;101117.81;;;7.12;100.00
21779;BME280;11050;52.222;20.916;2022-10-13T05:47:44;101120.34;;;7.20;100.00
21779;BME280;11050;52.222;20.916;2022-10-13T05:50:10;101125.78;;;7.26;100.00
21779;BME280;11050;52.222;20.916;2022-10-13T05:52:36;101113.78;;;7.34;100.00
21779;BME280;11050;52.222;20.916;2022-10-13T05:55:05;101134.81;;;7.46;100.00
21779;BME280;11050;52.222;20.916;2022-10-13T05:57:44;101122.81;;;7.54;100.00
21779;BME280;11050;52.222;20.916;2022-10-13T06:00:14;101126.75;;;7.58;100.00
21779;BME280;11050;52.222;20.916;2022-10-13T06:03:03;101130.34;;;7.65;100.00
21779;BME280;11050;52.222;20.916;2022-10-13T06:05:32;101124.84;;;7.72;100.00
21779;BME280;11050;52.222;20.916;2022-10-13T06:07:58;101138.06;;;7.81;100.00
21779;BME280;11050;52.222;20.916;2022-10-13T06:10:25;101141.44;;;7.90;100.00
21779;BME280;11050;52.222;20.916;2022-10-13T06:12:51;101140.13;;;7.99;100.00
21779;BME280;11050;52.222;20.916;2022-10-13T06:15:17;101132.09;;;8.04;100.00
21779;BME280;11050;52.222;20.916;2022-10-13T06:17:43;101141.53;;;8.14;100.00
21779;BME280;11050;52.222;20.916;2022-10-13T06:20:09;101142.56;;;8.20;100.00
21779;BME280;11050;52.222;20.916;2022-10-13T06:22:37;101137.47;;;8.30;100.00
21779;BME280;11050;52.222;20.916;2022-10-13T06:25:05;101146.91;;;8.40;100.00
21779;BME280;11050;52.222;20.916;2022-10-13T06:27:31;101147.94;;;8.46;100.00
21779;BME280;11050;52.222;20.916;2022-10-13T06:29:57;101140.72;;;8.51;100.00
21779;BME280;11050;52.222;20.916;2022-10-13T06:32:23;101149.09;;;8.63;100.00
21779;BME280;11050;52.222;20.916;2022-10-13T06:34:49;101144.19;;;8.72;100.00
21779;BME280;11050;52.222;20.916;2022-10-13T06:37:15;101150.25;;;8.80;100.00
21779;BME280;11050;52.222;20.916;2022-10-13T06:39:41;101135.03;;;8.84;100.00
21779;BME280;11050;52.222;20.916;2022-10-13T06:42:07;101138.50;;;8.98;100.00
21779;BME280;11050;52.222;20.916;2022-10-13T06:44:33;101135.88;;;9.09;100.00
21779;BME280;11050;52.222;20.916;2022-10-13T06:46:59;101137.06;;;9.20;100.00
21779;BME280;11050;52.222;20.916;2022-10-13T06:49:25;101132.13;;;9.28;100.00
21779;BME280;11050;52.222;20.916;2022-10-13T06:51:51;101141.72;;;9.37;100.00
21779;BME280;11050;52.222;20.916;2022-10-13T06:54:17;101138.47;;;9.47;100.00
21779;BME280;11050;52.222;20.916;2022-10-13T06:56:42;101131.19;;;9.59;100.00
21779;BME280;11050;52.222;20.916;2022-10-13T06:59:09;101126.69;;;9.65;100.00
21779;BME280;11050;52.222;20.916;2022-10-13T07:01:41;101125.06;;;9.75;100.00
21779;BME280;11050;52.222;20.916;2022-10-13T07:04:07;101123.63;;;9.91;100.00
21779;BME280;11050;52.222;20.916;2022-10-13T07:06:33;101137.44;;;10.02;100.00
21779;BME280;11050;52.222;20.916;2022-10-13T07:09:03;101129.34;;;10.07;100.00
21779;BME280;11050;52.222;20.916;2022-10-13T07:11:29;101133.88;;;10.20;100.00
21779;BME280;11050;52.222;20.916;2022-10-13T07:13:55;101129.13;;;10.27;100.00
21779;BME280;11050;52.222;20.916;2022-10-13T07:16:21;101122.72;;;10.33;100.00
21779;BME280;11050;52.222;20.916;2022-10-13T07:18:47;101124.56;;;10.50;100.00
21779;BME280;11050;52.222;20.916;2022-10-13T07:21:13;101120.31;;;10.66;100.00
21779;BME280;11050;52.222;20.916;2022-10-13T07:23:39;101121.66;;;10.75;100.00
21779;BME280;11050;52.222;20.916;2022-10-13T07:26:12;101118.56;;;10.83;100.00
21779;BME280;11050;52.222;20.916;2022-10-13T07:28:39;101109.50;;;10.94;100.00
21779;BME280;11050;52.222;20.916;2022-10-13T07:31:15;101118.13;;;11.09;100.00
21779;BME280;11050;52.222;20.916;2022-10-13T07:33:45;101114.91;;;11.24;99.70
21779;BME280;11050;52.222;20.916;2022-10-13T07:36:12;101110.97;;;11.31;98.61
21779;BME280;11050;52.222;20.916;2022-10-13T07:38:38;101103.31;;;11.45;97.12
21779;BME280;11050;52.222;20.916;2022-10-13T07:41:06;101108.56;;;11.58;95.70
21779;BME280;11050;52.222;20.916;2022-10-13T07:43:33;101106.31;;;11.67;93.45
21779;BME280;11050;52.222;20.916;2022-10-13T07:46:00;101104.38;;;11.79;92.61
21779;BME280;11050;52.222;20.916;2022-10-13T07:48:27;101096.34;;;11.89;91.43
21779;BME280;11050;52.222;20.916;2022-10-13T07:50:53;101093.06;;;12.03;89.80
21779;BME280;11050;52.222;20.916;2022-10-13T07:53:18;101100.69;;;12.13;88.61
21779;BME280;11050;52.222;20.916;2022-10-13T07:55:44;101102.56;;;12.24;86.62
21779;BME280;11050;52.222;20.916;2022-10-13T07:58:10;101097.91;;;12.24;84.34
21779;BME280;11050;52.222;20.916;2022-10-13T08:00:36;101094.50;;;12.34;83.82
21779;BME280;11050;52.222;20.916;2022-10-13T08:03:01;101097.56;;;12.49;82.99
21779;BME280;11050;52.222;20.916;2022-10-13T08:05:27;101094.88;;;12.54;81.33
21779;BME280;11050;52.222;20.916;2022-10-13T08:07:53;101103.44;;;12.69;80.59
21779;BME280;11050;52.222;20.916;2022-10-13T08:10:19;101094.78;;;12.77;79.20
21779;BME280;11050;52.222;20.916;2022-10-13T08:12:46;101090.50;;;12.86;78.04
21779;BME280;11050;52.222;20.916;2022-10-13T08:15:12;101087.25;;;12.89;75.50
21779;BME280;11050;52.222;20.916;2022-10-13T08:17:38;101083.41;;;12.90;76.06
21779;BME280;11050;52.222;20.916;2022-10-13T08:20:05;101086.59;;;12.99;75.06
21779;BME280;11050;52.222;20.916;2022-10-13T08:22:32;101088.13;;;13.06;74.83
21779;BME280;11050;52.222;20.916;2022-10-13T08:25:00;101079.25;;;13.21;74.77
21779;BME280;11050;52.222;20.916;2022-10-13T08:27:27;101085.94;;;13.42;74.05
21779;BME280;11050;52.222;20.916;2022-10-13T08:29:54;101078.94;;;13.56;72.36
21779;BME280;11050;52.222;20.916;2022-10-13T08:32:23;101087.38;;;13.66;71.40
21779;BME280;11050;52.222;20.916;2022-10-13T08:34:49;101080.84;;;13.72;70.90
21779;BME280;11050;52.222;20.916;2022-10-13T08:37:17;101074.34;;;13.83;68.84
21779;BME280;11050;52.222;20.916;2022-10-13T08:39:44;101077.56;;;13.96;68.22
21779;BME280;11050;52.222;20.916;2022-10-13T08:42:17;101073.25;;;14.05;66.47
21779;BME280;11050;52.222;20.916;2022-10-13T08:44:51;101074.72;;;14.13;66.35
21779;BME280;11050;52.222;20.916;2022-10-13T08:47:44;101076.19;;;14.20;65.15
21779;BME280;11050;52.222;20.916;2022-10-13T08:50:19;101071.66;;;14.31;65.13
21779;BME280;11050;52.222;20.916;2022-10-13T08:53:01;101079.66;;;14.54;64.16
21779;BME280;11050;52.222;20.916;2022-10-13T08:55:42;101073.69;;;14.67;64.98
21779;BME280;11050;52.222;20.916;2022-10-13T08:58:20;101064.38;;;14.78;63.61
21779;BME280;11050;52.222;20.916;2022-10-13T09:00:50;101074.09;;;14.81;62.08
21779;BME280;11050;52.222;20.916;2022-10-13T09:03:28;101079.06;;;14.79;60.75
21779;BME280;11050;52.222;20.916;2022-10-13T09:06:29;101067.25;;;14.88;61.07
21779;BME280;11050;52.222;20.916;2022-10-13T09:09:08;101074.25;;;15.01;62.24
21779;BME280;11050;52.222;20.916;2022-10-13T09:11:39;101063.72;;;14.98;59.28
21779;BME280;11050;52.222;20.916;2022-10-13T09:14:09;101064.59;;;15.03;59.04
21779;BME280;11050;52.222;20.916;2022-10-13T09:16:43;101071.31;;;15.12;59.19
21779;BME280;11050;52.222;20.916;2022-10-13T09:19:28;101067.78;;;15.22;59.52
21779;BME280;11050;52.222;20.916;2022-10-13T09:22:29;101062.09;;;15.39;58.75
21779;BME280;11050;52.222;20.916;2022-10-13T09:27:49;101054.63;;;15.39;56.45
21779;BME280;11050;52.222;20.916;2022-10-13T09:35:38;101055.16;;;15.78;57.43
21779;BME280;11050;52.222;20.916;2022-10-13T09:40:36;101055.25;;;15.98;54.56
21779;BME280;11050;52.222;20.916;2022-10-13T09:43:28;101050.31;;;16.15;54.27
21779;BME280;11050;52.222;20.916;2022-10-13T09:45:55;101042.00;;;16.15;52.52
21779;BME280;11050;52.222;20.916;2022-10-13T09:48:29;101039.50;;;16.19;53.13
21779;BME280;11050;52.222;20.916;2022-10-13T09:50:56;101039.00;;;16.27;53.01
21779;BME280;11050;52.222;20.916;2022-10-13T09:53:52;101039.56;;;16.39;52.83
21779;BME280;11050;52.222;20.916;2022-10-13T09:56:26;101022.66;;;16.40;51.90
21779;BME280;11050;52.222;20.916;2022-10-13T10:01:44;101021.81;;;16.45;49.59
21779;BME280;11050;52.222;20.916;2022-10-13T10:04:17;101014.34;;;16.45;50.33
21779;BME280;11050;52.222;20.916;2022-10-13T10:06:45;101021.03;;;16.59;50.91
21779;BME280;11050;52.222;20.916;2022-10-13T10:09:36;101015.78;;;16.78;49.85
21779;BME280;11050;52.222;20.916;2022-10-13T10:12:05;101001.91;;;16.83;48.94
21779;BME280;11050;52.222;20.916;2022-10-13T10:14:37;101011.06;;;16.83;48.81
21779;BME280;11050;52.222;20.916;2022-10-13T10:17:42;101007.72;;;16.96;49.02
21779;BME280;11050;52.222;20.916;2022-10-13T10:23:02;100998.00;;;16.94;46.04
21779;BME280;11050;52.222;20.916;2022-10-13T10:25:50;100984.41;;;17.02;46.37
21779;BME280;11050;52.222;20.916;2022-10-13T10:31:37;100979.63;;;17.23;44.82
21779;BME280;11050;52.222;20.916;2022-10-13T10:34:30;100977.38;;;17.40;45.33
21779;BME280;11050;52.222;20.916;2022-10-13T10:37:36;100968.16;;;17.50;45.56
21779;BME280;11050;52.222;20.916;2022-10-13T10:45:30;100967.91;;;18.05;43.71
21779;BME280;11050;52.222;20.916;2022-10-13T10:50:43;100963.22;;;18.49;39.88
21779;BME280;11050;52.222;20.916;2022-10-13T10:53:36;100956.44;;;18.60;39.73
21779;BME280;11050;52.222;20.916;2022-10-13T10:56:21;100953.03;;;18.97;38.88
21779;BME280;11050;52.222;20.916;2022-10-13T10:59:11;100958.03;;;19.24;38.64
21779;BME280;11050;52.222;20.916;2022-10-13T11:04:47;100952.91;;;19.83;36.95
21779;BME280;11050;52.222;20.916;2022-10-13T11:17:34;100939.56;;;20.87;34.53
21779;BME280;11050;52.222;20.916;2022-10-13T11:25:47;100924.41;;;21.74;32.14
21779;BME280;11050;52.222;20.916;2022-10-13T11:31:22;100910.09;;;22.03;31.63
21779;BME280;11050;52.222;20.916;2022-10-13T11:36:46;100916.28;;;22.71;30.68
21779;BME280;11050;52.222;20.916;2022-10-13T11:50:17;100908.78;;;24.40;28.21
21779;BME280;11050;52.222;20.916;2022-10-13T11:53:26;100895.53;;;24.67;28.09
21779;BME280;11050;52.222;20.916;2022-10-13T11:55:59;100910.91;;;24.86;27.16
21779;BME280;11050;52.222;20.916;2022-10-13T11:58:32;100905.25;;;24.95;27.53
21779;BME280;11050;52.222;20.916;2022-10-13T12:01:05;100897.69;;;25.42;27.20
21779;BME280;11050;52.222;20.916;2022-10-13T12:03:39;100882.00;;;25.82;26.34
21779;BME280;11050;52.222;20.916;2022-10-13T12:06:29;100877.22;;;26.03;25.85
21779;BME280;11050;52.222;20.916;2022-10-13T12:09:16;100877.25;;;26.23;25.67
21779;BME280;11050;52.222;20.916;2022-10-13T12:11:43;100881.63;;;26.54;25.49
21779;BME280;11050;52.222;20.916;2022-10-13T12:14:25;100884.00;;;26.31;24.70
21779;BME280;11050;52.222;20.916;2022-10-13T12:16:57;100878.22;;;26.27;25.22
21779;BME280;11050;52.222;20.916;2022-10-13T12:19:27;100868.59;;;26.49;24.78
21779;BME280;11050;52.222;20.916;2022-10-13T12:21:58;100860.84;;;26.91;25.29
21779;BME280;11050;52.222;20.916;2022-10-13T12:24:28;100858.53;;;27.05;24.03
21779;BME280;11050;52.222;20.916;2022-10-13T12:26:56;100852.28;;;27.11;24.44
21779;BME280;11050;52.222;20.916;2022-10-13T12:29:27;100866.78;;;27.22;23.93
21779;BME280;11050;52.222;20.916;2022-10-13T12:31:54;100879.03;;;27.38;23.80
21779;BME280;11050;52.222;20.916;2022-10-13T12:34:29;100864.19;;;27.29;24.00
21779;BME280;11050;52.222;20.916;2022-10-13T12:37:05;100870.75;;;27.21;23.81
21779;BME280;11050;52.222;20.916;2022-10-13T12:39:37;100863.72;;;27.27;24.01
21779;BME280;11050;52.222;20.916;2022-10-13T12:42:07;100857.03;;;27.44;23.71
21779;BME280;11050;52.222;20.916;2022-10-13T12:44:35;100853.50;;;27.71;24.08
21779;BME280;11050;52.222;20.916;2022-10-13T12:47:02;100855.25;;;27.99;23.22
21779;BME280;11050;52.222;20.916;2022-10-13T12:49:34;100856.88;;;28.00;23.43
21779;BME280;11050;52.222;20.916;2022-10-13T12:52:23;100852.97;;;28.05;22.98
21779;BME280;11050;52.222;20.916;2022-10-13T12:54:54;100851.09;;;28.09;23.31
21779;BME280;11050;52.222;20.916;2022-10-13T12:57:33;100845.94;;;28.27;22.80
21779;BME280;11050;52.222;20.916;2022-10-13T13:02:58;100848.47;;;28.44;23.53
21779;BME280;11050;52.222;20.916;2022-10-13T13:05:38;100844.09;;;28.46;23.00
21779;BME280;11050;52.222;20.916;2022-10-13T13:08:28;100842.22;;;29.09;22.68
21779;BME280;11050;52.222;20.916;2022-10-13T13:10:59;100847.72;;;29.33;22.24
21779;BME280;11050;52.222;20.916;2022-10-13T13:13:26;100839.25;;;29.33;22.03
21779;BME280;11050;52.222;20.916;2022-10-13T13:15:53;100831.03;;;29.28;22.21
21779;BME280;11050;52.222;20.916;2022-10-13T13:18:36;100835.47;;;29.45;22.09
21779;BME280;11050;52.222;20.916;2022-10-13T13:21:11;100827.50;;;29.66;22.72
21779;BME280;11050;52.222;20.916;2022-10-13T13:23:38;100819.03;;;29.85;21.69
21779;BME280;11050;52.222;20.916;2022-10-13T13:28:48;100826.63;;;29.31;21.99
21779;BME280;11050;52.222;20.916;2022-10-13T13:31:20;100822.47;;;29.59;22.34
21779;BME280;11050;52.222;20.916;2022-10-13T13:33:47;100816.63;;;29.52;21.97
21779;BME280;11050;52.222;20.916;2022-10-13T13:36:22;100810.91;;;29.49;21.79
21779;BME280;11050;52.222;20.916;2022-10-13T13:38:50;100807.41;;;29.55;22.33
21779;BME280;11050;52.222;20.916;2022-10-13T13:41:17;100804.00;;;29.65;21.75
21779;BME280;11050;52.222;20.916;2022-10-13T13:43:43;100803.25;;;29.68;22.33
21779;BME280;11050;52.222;20.916;2022-10-13T13:46:17;100807.69;;;29.50;22.09
21779;BME280;11050;52.222;20.916;2022-10-13T13:48:43;100802.34;;;29.64;22.63
21779;BME280;11050;52.222;20.916;2022-10-13T13:51:10;100815.25;;;29.97;22.32
21779;BME280;11050;52.222;20.916;2022-10-13T13:53:36;100801.25;;;30.04;22.12
21779;BME280;11050;52.222;20.916;2022-10-13T13:56:03;100813.84;;;30.25;22.12
21779;BME280;11050;52.222;20.916;2022-10-13T13:58:29;100808.16;;;30.25;21.76
21779;BME280;11050;52.222;20.916;2022-10-13T14:00:55;100815.13;;;30.09;21.74
21779;BME280;11050;52.222;20.916;2022-10-13T14:03:21;100810.03;;;30.18;21.76
21779;BME280;11050;52.222;20.916;2022-10-13T14:05:46;100809.47;;;30.28;21.74
21779;BME280;11050;52.222;20.916;2022-10-13T14:08:12;100805.25;;;30.22;21.66
21779;BME280;11050;52.222;20.916;2022-10-13T14:10:39;100809.28;;;30.21;21.91
21779;BME280;11050;52.222;20.916;2022-10-13T14:13:05;100808.53;;;30.24;22.00
21779;BME280;11050;52.222;20.916;2022-10-13T14:15:30;100810.56;;;30.42;21.91
21779;BME280;11050;52.222;20.916;2022-10-13T14:17:56;100809.22;;;30.36;21.99
21779;BME280;11050;52.222;20.916;2022-10-13T14:20:22;100800.41;;;30.22;21.82
21779;BME280;11050;52.222;20.916;2022-10-13T14:22:48;100800.09;;;30.08;21.86
21779;BME280;11050;52.222;20.916;2022-10-13T14:25:14;100797.72;;;29.91;21.94
21779;BME280;11050;52.222;20.916;2022-10-13T14:27:40;100797.69;;;29.72;22.54